< < Back
Terminal Aerodrome Forecast


Current Version              Previous Versions:   1  2  3  4  5  6  7  8  9  

Terminal Aerodrome Forecast

254
FTUS42 KCHS 031733
TAFSAV
TAF
KSAV 031733Z 0318/0418 23012G18KT P6SM VCTS SCT045CB BKN080
      TEMPO 0319/0322 3SM TSRA SCT020 BKN035CB
     FM040100 22007KT P6SM SCT080
     FM041400 26010KT P6SM SCT060=



Latest METAR

583
SAUS80 KWBC 032000 RRA
MTRSAV
METAR KSAV 031953Z 28017G24KT 10SM SCT070 BKN250 34/18 A3000 RMK AO2
SLP157 T03390178


USA.gov is the U.S. government's official web portal to all federal, state and local government web resources and services.